Aeroporto :
LOGIN :

Iscrizione | Disclaimer

   EN    FR    IT 

 










Sommario :    VFR   VFR Marginale   IFR   IFR Intensivo   IFR Molto Intensivo
Visibilità : 
Base nubi : 
>= 8 km
>= 3000ft
5 / 8 km
1000 / 3000 ft
1500m / 5 km
500 / 1000 ft
800 / 1500m
200 / 500 ft
< 800m
< 200 ft
Simboli :   Temporali  Nebbia  Neve Forte  Precipitazioni Forti  Vento > 20 kt
SIGMETs :   Varie  Temporali  Ghiacco  Turbolenza  Onda orograficha  Ceneri Vulcaniche






- Altitudine del aeroporto : 598 ft
- Codice IATA : BQH


EGKB - Biggin Hill

ULTIMO METAR :
  • 171320Z 06004KT 020V100 9999 BKN020 07/05 Q1011

METARs OBSOLETI :
  • 171250Z VRB03KT 9999 BKN021 07/04 Q1010
  • 171220Z 03004KT 350V060 9999 SCT023 07/04 Q1010
  • 171150Z 04004KT 010V070 9999 FEW025 07/04 Q1010
  • 171120Z VRB02KT 9999 FEW025 06/04 Q1010
  • 171020Z VRB01KT 8000 NSC 05/04 Q1011

TAF TAF EGKB
Valido dal 17 a 12 ore il 17 a 21 ore UTC


171103Z 1712/1721 02005KT 9999 FEW030
TEMPO 1712/1715 8000
PROB30
TEMPO 1712/1716 BKN014



MetMap, La meteo Aeronautica in un colpo d'occhio ! - Copyright ORBIFLY Dicembre 2007 - Disclaimer

ORBIFLY MET'MAP TEAM :

Programmazione e sviluppo : Alexandra Zaïnal
Concezione e sviluppo : Baudouin d'Aumeries
Co-Programmazione e sviluppo : Marc-Olivier Méhu
Supporto tecnico e logistico : Manuel Goepfert
Aiuto per la traduzione : Arnaldo La Scala

Contatto : metmap@orbifly.com




FONTI E CREDITI :

   NOAA